createdAt,value
2018-12-01T00:23:49.259Z,19.57
2018-12-01T00:26:16.973Z,20.60
2018-12-01T00:28:45.265Z,19.27
2018-12-01T00:31:24.449Z,18.37
2018-12-01T00:36:56.840Z,20.03
2018-12-01T00:39:24.978Z,19.87
2018-12-01T00:41:53.845Z,18.40
2018-12-01T00:51:16.667Z,17.30
2018-12-01T00:53:45.027Z,19.50
2018-12-01T00:56:13.296Z,17.73
2018-12-01T01:01:44.872Z,16.00
2018-12-01T01:10:30.312Z,16.50
2018-12-01T01:24:57.003Z,15.73
2018-12-01T01:27:25.454Z,16.07
2018-12-01T01:33:07.465Z,16.77
2018-12-01T01:35:48.913Z,17.10
2018-12-01T01:44:25.828Z,15.20
2018-12-01T01:46:53.948Z,15.97
2018-12-01T01:49:23.470Z,16.03
2018-12-01T01:51:53.930Z,15.10
2018-12-01T01:57:20.817Z,15.80
2018-12-01T01:59:53.423Z,15.90
2018-12-01T02:05:25.298Z,14.57
2018-12-01T02:07:53.578Z,15.17
2018-12-01T02:10:21.777Z,16.27
2018-12-01T02:13:03.380Z,15.13
2018-12-01T02:15:45.643Z,15.97
2018-12-01T02:18:14.391Z,14.20
2018-12-01T02:23:35.223Z,15.23
2018-12-01T02:26:05.203Z,16.23
2018-12-01T02:28:33.230Z,14.33
2018-12-01T02:31:19.912Z,15.13
2018-12-01T02:33:48.388Z,14.00
2018-12-01T02:39:38.904Z,14.90
2018-12-01T02:51:08.682Z,12.27
2018-12-01T03:02:37.385Z,13.97
2018-12-01T03:11:12.800Z,13.97
2018-12-01T03:13:50.432Z,14.40
2018-12-01T03:22:26.288Z,14.63
2018-12-01T03:28:11.316Z,15.20
2018-12-01T03:30:40.168Z,15.27
2018-12-01T03:33:29.114Z,15.60
2018-12-01T03:35:58.485Z,16.40
2018-12-01T03:41:29.920Z,16.63
2018-12-01T03:43:58.312Z,17.03
2018-12-01T03:46:26.520Z,17.53
2018-12-01T03:48:54.672Z,18.47
2018-12-01T03:51:27.607Z,18.27
2018-12-01T03:53:56.174Z,19.23
2018-12-01T03:56:38.398Z,18.60
2018-12-01T04:02:26.130Z,19.67
2018-12-01T04:04:56.073Z,20.10
2018-12-01T04:07:46.686Z,20.63
2018-12-01T04:10:31.544Z,19.70
2018-12-01T04:13:15.844Z,21.00
2018-12-01T04:15:44.159Z,20.70
2018-12-01T04:21:12.967Z,22.47
2018-12-01T04:24:02.564Z,22.87
2018-12-01T04:30:03.100Z,22.60
2018-12-01T04:32:32.046Z,23.70
2018-12-01T04:40:54.576Z,23.90
2018-12-01T04:43:23.298Z,23.87
2018-12-01T04:45:51.739Z,23.47
2018-12-01T04:48:25.669Z,24.07
2018-12-01T04:50:54.177Z,23.67
2018-12-01T04:53:22.398Z,22.30
2018-12-01T04:58:51.712Z,24.30
2018-12-01T05:01:20.841Z,24.10
2018-12-01T05:03:49.149Z,25.20
2018-12-01T05:09:24.636Z,22.27
2018-12-01T05:17:58.621Z,24.10
2018-12-01T05:23:48.078Z,23.40
2018-12-01T05:26:23.271Z,23.57
2018-12-01T05:32:03.266Z,23.50
2018-12-01T05:40:48.421Z,23.17
2018-12-01T05:43:24.693Z,23.57
2018-12-01T05:57:56.208Z,23.00
2018-12-01T06:00:24.667Z,24.33
2018-12-01T06:09:49.833Z,20.40
2018-12-01T06:15:28.880Z,22.07
2018-12-01T06:18:13.875Z,21.13
2018-12-01T06:20:46.930Z,22.43
2018-12-01T06:23:35.482Z,22.30
2018-12-01T06:29:00.274Z,20.20
2018-12-01T06:31:29.040Z,20.67
2018-12-01T06:37:01.099Z,19.43
2018-12-01T06:39:34.110Z,21.20
2018-12-01T06:45:03.509Z,21.23
2018-12-01T06:47:33.720Z,19.70
2018-12-01T06:50:07.169Z,19.70
2018-12-01T06:52:38.161Z,21.70
2018-12-01T06:55:09.622Z,20.60
2018-12-01T06:57:38.499Z,22.57
2018-12-01T07:00:11.301Z,22.63
2018-12-01T07:02:39.499Z,22.03
2018-12-01T07:05:08.500Z,21.90
2018-12-01T07:07:36.495Z,22.70
2018-12-01T07:10:07.902Z,21.47
2018-12-01T07:15:53.018Z,21.53
2018-12-01T07:18:34.302Z,21.20
2018-12-01T07:24:11.013Z,20.13
2018-12-01T07:26:39.059Z,21.37
2018-12-01T07:32:04.488Z,21.00
2018-12-01T07:34:34.034Z,22.30
2018-12-01T07:37:16.045Z,20.90
2018-12-01T07:45:56.181Z,21.40
2018-12-01T07:48:25.158Z,20.13
2018-12-01T07:50:56.655Z,20.90
2018-12-01T07:53:25.587Z,19.90
2018-12-01T07:56:01.035Z,21.20
2018-12-01T07:58:43.488Z,20.70
2018-12-01T08:01:13.350Z,21.23
2018-12-01T08:06:44.987Z,20.97
2018-12-01T08:09:13.174Z,20.50
2018-12-01T08:11:55.222Z,19.00
2018-12-01T08:14:35.649Z,18.90
2018-12-01T08:17:03.813Z,20.43
2018-12-01T08:19:32.113Z,21.33
2018-12-01T08:22:01.153Z,19.20
2018-12-01T08:27:37.301Z,18.70
2018-12-01T08:30:11.865Z,19.80
2018-12-01T08:32:39.786Z,20.20
2018-12-01T08:35:08.894Z,19.63
2018-12-01T08:40:41.079Z,18.60
2018-12-01T08:43:27.559Z,19.37
2018-12-01T08:46:05.217Z,21.50
2018-12-01T08:48:34.494Z,18.73
2018-12-01T08:51:03.000Z,20.37
2018-12-01T08:53:31.949Z,19.30
2018-12-01T08:56:00.586Z,20.17
2018-12-01T08:58:29.476Z,19.30
2018-12-01T09:00:57.551Z,22.10
2018-12-01T09:03:31.883Z,20.27
2018-12-01T09:06:03.720Z,19.20
2018-12-01T09:08:31.991Z,22.20
2018-12-01T09:10:59.739Z,21.10
2018-12-01T09:13:28.248Z,20.97
2018-12-01T09:15:56.135Z,19.10
2018-12-01T09:18:24.582Z,19.13
2018-12-01T09:20:53.219Z,20.67
2018-12-01T09:23:21.284Z,20.17
2018-12-01T09:25:49.748Z,17.90
2018-12-01T09:28:18.275Z,18.97
2018-12-01T09:30:48.302Z,18.80
2018-12-01T09:33:16.737Z,19.23
2018-12-01T09:35:44.635Z,17.50
2018-12-01T09:38:12.339Z,18.20
2018-12-01T09:40:40.227Z,18.43
2018-12-01T09:43:09.199Z,19.17
2018-12-01T09:45:39.014Z,19.30
2018-12-01T09:48:07.514Z,18.83
2018-12-01T09:50:36.567Z,20.67
2018-12-01T09:53:08.943Z,16.77
2018-12-01T09:55:37.526Z,16.93
2018-12-01T09:58:07.622Z,15.53
2018-12-01T10:00:35.620Z,17.63
2018-12-01T10:03:06.146Z,17.40
2018-12-01T10:05:38.106Z,14.93
2018-12-01T10:08:07.684Z,15.40
2018-12-01T10:10:37.149Z,16.20
2018-12-01T10:13:05.563Z,16.10
2018-12-01T10:15:37.739Z,14.70
2018-12-01T10:18:17.126Z,13.43
2018-12-01T10:20:53.910Z,14.30
2018-12-01T10:23:22.514Z,13.00
2018-12-01T10:26:02.155Z,13.63
2018-12-01T10:28:34.345Z,13.90
2018-12-01T10:31:02.260Z,12.67
2018-12-01T10:33:30.690Z,13.37
2018-12-01T10:35:58.659Z,16.40
2018-12-01T10:38:35.063Z,14.00
2018-12-01T10:41:03.450Z,14.10
2018-12-01T10:43:35.519Z,14.83
2018-12-01T10:46:04.218Z,16.70
2018-12-01T10:48:34.148Z,36.87
2018-12-01T10:51:03.524Z,14.93
2018-12-01T10:53:31.375Z,14.90
2018-12-01T10:56:08.108Z,14.23
2018-12-01T11:01:20.140Z,13.60
2018-12-01T11:03:50.097Z,14.87
2018-12-01T11:06:24.326Z,13.90
2018-12-01T11:08:52.187Z,13.57
2018-12-01T11:11:21.156Z,13.77
2018-12-01T11:13:49.043Z,12.50
2018-12-01T11:16:17.251Z,12.03
2018-12-01T11:18:51.079Z,12.20
2018-12-01T11:21:35.241Z,11.50
2018-12-01T11:24:03.139Z,11.73
2018-12-01T11:26:30.977Z,10.70
2018-12-01T11:28:59.087Z,11.50
2018-12-01T11:31:27.045Z,11.20
2018-12-01T11:33:55.467Z,10.03
2018-12-01T11:36:23.465Z,11.10
2018-12-01T11:38:52.486Z,9.97
2018-12-01T11:41:20.804Z,9.90
2018-12-01T11:43:49.455Z,9.50
2018-12-01T11:46:17.596Z,10.17
2018-12-01T11:48:47.613Z,10.90
2018-12-01T11:51:27.170Z,11.70
2018-12-01T11:53:56.819Z,10.30
2018-12-01T11:56:24.589Z,10.00
2018-12-01T11:58:53.407Z,10.10
2018-12-01T12:01:21.546Z,8.13
2018-12-01T12:03:51.366Z,8.73
2018-12-01T12:06:19.419Z,9.00
2018-12-01T12:08:47.281Z,8.37
2018-12-01T12:11:15.363Z,9.90
2018-12-01T12:13:42.967Z,9.87
2018-12-01T12:16:10.936Z,9.57
2018-12-01T12:18:42.386Z,10.13
2018-12-01T12:21:21.472Z,9.27
2018-12-01T12:23:50.379Z,10.27
2018-12-01T12:26:18.624Z,10.90
2018-12-01T12:28:46.636Z,10.30
2018-12-01T12:31:15.397Z,10.10
2018-12-01T12:33:43.739Z,11.40
2018-12-01T12:36:11.725Z,11.33
2018-12-01T12:38:39.931Z,11.33
2018-12-01T12:41:07.986Z,10.70
2018-12-01T12:43:37.236Z,10.90
2018-12-01T12:46:05.618Z,10.07
2018-12-01T12:48:35.845Z,10.67
2018-12-01T12:51:03.661Z,10.10
2018-12-01T12:53:31.733Z,10.70
2018-12-01T12:56:01.545Z,10.87
2018-12-01T12:58:29.991Z,10.13
2018-12-01T13:01:07.395Z,9.90
2018-12-01T13:03:40.404Z,9.50
2018-12-01T13:06:23.018Z,9.23
2018-12-01T13:08:51.909Z,8.43
2018-12-01T13:11:20.315Z,8.03
2018-12-01T13:13:48.157Z,8.10
2018-12-01T13:16:18.595Z,9.47
2018-12-01T13:18:46.493Z,9.20
2018-12-01T13:21:14.635Z,8.37
2018-12-01T13:23:42.675Z,7.43
2018-12-01T13:26:12.729Z,8.23
2018-12-01T13:28:40.983Z,7.97
2018-12-01T13:31:08.909Z,8.20
2018-12-01T13:33:37.244Z,8.10
2018-12-01T13:36:05.481Z,8.50
2018-12-01T13:38:35.058Z,8.83
2018-12-01T13:41:09.680Z,8.47
2018-12-01T13:43:41.037Z,7.77
2018-12-01T13:46:08.787Z,7.67
2018-12-01T13:51:21.945Z,6.83
2018-12-01T13:53:56.706Z,7.20
2018-12-01T13:56:24.781Z,6.60
2018-12-01T13:58:53.129Z,6.70
2018-12-01T14:01:21.790Z,6.20
2018-12-01T14:03:56.275Z,6.70
2018-12-01T14:06:24.308Z,5.50
2018-12-01T14:08:52.478Z,6.60
2018-12-01T14:11:21.985Z,6.63
2018-12-01T14:13:49.895Z,6.50
2018-12-01T14:16:20.421Z,5.70
2018-12-01T14:18:48.182Z,6.70
2018-12-01T14:21:22.909Z,5.40
2018-12-01T14:23:50.697Z,5.63
2018-12-01T14:26:18.950Z,5.40
2018-12-01T14:28:47.717Z,5.70
2018-12-01T14:31:23.230Z,6.13
2018-12-01T14:36:44.002Z,6.50
2018-12-01T14:39:19.654Z,6.40
2018-12-01T14:41:49.221Z,6.50
2018-12-01T14:44:17.566Z,6.77
2018-12-01T14:46:45.727Z,5.50
2018-12-01T14:49:13.596Z,5.00
2018-12-01T14:51:41.932Z,4.63
2018-12-01T14:54:10.225Z,8.73
2018-12-01T14:56:42.231Z,5.20
2018-12-01T14:59:10.888Z,6.73
2018-12-01T15:01:39.261Z,6.30
2018-12-01T15:04:08.196Z,6.43
2018-12-01T15:06:36.303Z,4.70
2018-12-01T15:09:07.540Z,5.60
2018-12-01T15:11:35.917Z,5.93
2018-12-01T15:14:04.076Z,5.20
2018-12-01T15:16:32.054Z,5.73
2018-12-01T15:19:00.369Z,5.20
2018-12-01T15:21:28.590Z,5.90
2018-12-01T15:24:01.314Z,6.77
2018-12-01T15:26:30.268Z,5.80
2018-12-01T15:28:58.394Z,5.93
2018-12-01T15:31:26.617Z,5.50
2018-12-01T15:33:55.259Z,6.60
2018-12-01T15:36:23.737Z,5.33
2018-12-01T15:38:52.157Z,6.90
2018-12-01T15:41:22.730Z,6.60
2018-12-01T15:43:51.111Z,8.70
2018-12-01T15:46:20.351Z,8.30
2018-12-01T15:48:48.283Z,6.40
2018-12-01T15:51:16.130Z,6.70
2018-12-01T15:53:44.123Z,6.20
2018-12-01T15:56:11.966Z,7.60
2018-12-01T15:58:39.720Z,7.10
2018-12-01T16:01:07.522Z,6.53
2018-12-01T16:03:35.271Z,6.10
2018-12-01T16:06:03.106Z,6.33
2018-12-01T16:08:31.237Z,6.90
2018-12-01T16:10:59.001Z,6.97
2018-12-01T16:13:27.486Z,6.57
2018-12-01T16:16:02.193Z,8.10
2018-12-01T16:18:30.339Z,6.70
2018-12-01T16:20:58.337Z,5.27
2018-12-01T16:23:26.573Z,5.53
2018-12-01T16:25:54.608Z,5.07
2018-12-01T16:28:22.452Z,7.90
2018-12-01T16:30:50.493Z,6.90
2018-12-01T16:33:20.352Z,7.17
2018-12-01T16:35:49.835Z,6.30
2018-12-01T16:38:23.429Z,5.60
2018-12-01T16:40:56.966Z,6.00
2018-12-01T16:43:25.773Z,5.80
2018-12-01T16:45:54.172Z,7.50
2018-12-01T16:48:21.946Z,5.53
2018-12-01T16:50:49.858Z,6.60
2018-12-01T16:53:18.942Z,5.63
2018-12-01T16:55:46.644Z,5.40
2018-12-01T16:58:14.778Z,5.67
2018-12-01T17:00:43.019Z,6.60
2018-12-01T17:03:11.434Z,6.90
2018-12-01T17:06:04.023Z,6.00
2018-12-01T17:08:31.780Z,5.87
2018-12-01T17:11:05.760Z,5.90
2018-12-01T17:13:33.728Z,5.70
2018-12-01T17:16:03.574Z,7.90
2018-12-01T17:18:34.825Z,6.80
2018-12-01T17:21:02.782Z,7.10
2018-12-01T17:23:30.598Z,6.57
2018-12-01T17:25:58.642Z,5.40
2018-12-01T17:28:26.465Z,5.80
2018-12-01T17:30:54.240Z,5.70
2018-12-01T17:33:35.446Z,6.37
2018-12-01T17:36:03.783Z,6.57
2018-12-01T17:38:33.906Z,6.43
2018-12-01T17:42:03.132Z,5.87
2018-12-01T17:48:02.908Z,5.70
2018-12-01T17:50:30.887Z,6.30
2018-12-01T18:28:25.201Z,5.37
2018-12-01T18:30:53.612Z,6.23
2018-12-01T18:33:29.529Z,5.70
2018-12-01T18:35:58.404Z,6.40
2018-12-01T18:38:26.849Z,5.70
2018-12-01T18:41:02.007Z,6.03
2018-12-01T18:43:37.386Z,6.33
2018-12-01T18:46:10.125Z,9.67
2018-12-01T18:48:57.225Z,6.33
2018-12-01T18:54:48.109Z,6.97
2018-12-01T18:57:33.232Z,8.00
2018-12-01T19:02:47.076Z,6.60
2018-12-01T19:05:15.036Z,6.40
2018-12-01T19:10:40.529Z,8.23
2018-12-01T19:13:08.549Z,5.83
2018-12-01T19:15:36.626Z,6.57
2018-12-01T19:18:06.127Z,6.00
2018-12-01T19:20:35.911Z,6.57
2018-12-01T19:23:10.406Z,6.50
2018-12-01T19:25:40.460Z,7.60
2018-12-01T19:28:16.422Z,10.63
2018-12-01T19:30:44.988Z,7.47
2018-12-01T19:33:15.687Z,6.97
2018-12-01T19:36:12.888Z,10.30
2018-12-01T19:38:48.381Z,9.57
2018-12-01T19:41:17.387Z,7.87
2018-12-01T19:43:47.944Z,8.60
2018-12-01T19:46:17.676Z,9.10
2018-12-01T19:48:48.743Z,9.07
2018-12-01T19:51:16.601Z,8.90
2018-12-01T19:53:44.517Z,8.67
2018-12-01T19:56:21.318Z,8.63
2018-12-01T19:58:49.298Z,7.30
2018-12-01T20:01:27.525Z,7.10
2018-12-01T20:04:09.843Z,6.80
2018-12-01T20:06:38.378Z,6.67
2018-12-01T20:18:34.669Z,6.13
2018-12-01T23:16:09.275Z,2.77
2018-12-01T23:21:54.926Z,3.00
2018-12-01T23:42:34.171Z,3.43
2018-12-01T23:45:06.523Z,3.80
